Time;durP1;ratioP1;P1;durP2;ratioP2;P2;SDS_P1;SDS_P2;PMS_P1;PMS_P2;Temp;Humidity;BMP_temperature;BMP_pressure;BME280_temperature;BME280_humidity;BME280_pressure;Samples;Min_cycle;Max_cycle;Signal;HPM_P1;HPM_P2
2021/06/29 00:00:59;;;;;;;18.13;10.30;;;;;;;16.21;72.38;100386.13;5125573;28;20118;-67
2021/06/29 00:03:25;;;;;;;16.75;9.88;;;;;;;16.22;72.01;100385.22;5125986;28;20015;-67
2021/06/29 00:05:50;;;;;;;18.10;9.43;;;;;;;16.23;71.65;100379.06;5125722;28;20024;-68
2021/06/29 00:08:16;;;;;;;15.48;9.07;;;;;;;16.14;71.87;100375.88;5124113;28;20050;-67
2021/06/29 00:10:42;;;;;;;15.02;9.35;;;;;;;16.10;72.31;100370.75;5125523;28;20019;-67
2021/06/29 00:13:08;;;;;;;18.98;9.23;;;;;;;16.12;72.27;100369.88;5125518;28;20080;-67
2021/06/29 00:15:35;;;;;;;18.85;9.73;;;;;;;16.13;71.90;100374.19;5125499;28;20081;-66
2021/06/29 00:18:00;;;;;;;17.08;9.07;;;;;;;16.12;72.17;100380.34;5124439;28;20015;-66
2021/06/29 00:20:26;;;;;;;14.23;8.88;;;;;;;16.12;71.86;100375.09;5125532;28;20724;-67
2021/06/29 00:22:52;;;;;;;17.73;9.73;;;;;;;16.07;72.08;100373.47;5125262;28;20038;-67
2021/06/29 00:25:18;;;;;;;19.63;9.40;;;;;;;16.07;72.01;100377.88;5125383;28;20019;-67
2021/06/29 00:27:45;;;;;;;19.38;9.82;;;;;;;16.07;71.68;100373.47;5123974;28;20030;-66
2021/06/29 00:30:11;;;;;;;13.48;8.95;;;;;;;16.04;71.77;100378.81;5125211;28;20056;-67
2021/06/29 00:32:37;;;;;;;22.02;10.07;;;;;;;16.05;71.84;100380.53;5123789;28;20044;-66
2021/06/29 00:35:04;;;;;;;16.85;10.13;;;;;;;16.07;71.62;100372.63;5124821;28;20119;-66
2021/06/29 00:37:29;;;;;;;20.23;10.57;;;;;;;16.01;71.59;100378.91;5125136;28;20025;-67
2021/06/29 00:39:55;;;;;;;16.25;9.45;;;;;;;15.96;71.72;100380.78;5123499;28;20091;-66
2021/06/29 00:42:20;;;;;;;16.58;10.30;;;;;;;15.97;71.56;100372.03;5125283;28;20019;-67
2021/06/29 00:44:46;;;;;;;16.88;9.57;;;;;;;15.97;71.53;100374.66;5123532;28;20022;-66
2021/06/29 00:47:12;;;;;;;15.85;9.05;;;;;;;15.95;71.43;100377.31;5124864;28;20011;-66
2021/06/29 00:49:38;;;;;;;17.00;9.27;;;;;;;15.92;71.42;100374.78;5123565;28;20019;-67
2021/06/29 00:52:05;;;;;;;16.48;10.93;;;;;;;15.92;71.46;100374.78;5124871;28;20080;-67
2021/06/29 00:54:34;;;;;;;16.30;9.40;;;;;;;15.90;71.61;100375.72;5123148;28;20030;-67
2021/06/29 00:57:00;;;;;;;19.80;10.82;;;;;;;15.88;71.57;100364.47;5124704;28;20043;-67
2021/06/29 00:59:26;;;;;;;25.25;10.98;;;;;;;15.84;71.42;100364.56;5124641;28;20028;-67
2021/06/29 01:01:51;;;;;;;14.90;9.75;;;;;;;15.81;71.57;100362.03;5124634;28;20071;-67
2021/06/29 01:04:17;;;;;;;16.70;9.90;;;;;;;15.77;71.56;100357.78;5124632;28;20056;-67
2021/06/29 01:06:44;;;;;;;18.92;9.77;;;;;;;15.71;71.33;100353.63;5124661;28;20050;-68
2021/06/29 01:09:09;;;;;;;20.63;10.20;;;;;;;15.63;71.70;100360.84;5124343;28;20047;-66
2021/06/29 01:11:34;;;;;;;17.00;9.77;;;;;;;15.57;71.92;100361.03;5124747;28;20030;-67
2021/06/29 01:14:14;;;;;;;19.30;9.15;;;;;;;15.50;72.21;100357.72;5123191;28;20425;-67
2021/06/29 01:16:41;;;;;;;18.98;10.77;;;;;;;15.53;72.08;100354.19;5124499;28;20032;-67
2021/06/29 01:19:07;;;;;;;18.17;10.18;;;;;;;15.44;71.99;100348.31;5124159;28;20436;-67
2021/06/29 01:21:37;;;;;;;19.23;9.75;;;;;;;15.40;71.88;100351.06;5122648;28;20106;-67
2021/06/29 01:24:07;;;;;;;17.90;9.32;;;;;;;15.27;71.98;100345.34;5124274;28;20022;-68
2021/06/29 01:26:36;;;;;;;17.38;9.75;;;;;;;15.16;72.00;100337.81;5124300;28;20054;-67
2021/06/29 01:29:04;;;;;;;19.60;9.90;;;;;;;15.06;72.26;100338.06;5124380;28;20028;-67
2021/06/29 01:31:31;;;;;;;17.27;10.15;;;;;;;15.01;72.61;100344.31;5124013;28;20024;-65
2021/06/29 01:33:57;;;;;;;20.65;10.50;;;;;;;14.94;72.61;100344.50;5124150;28;20016;-66
2021/06/29 01:36:25;;;;;;;15.55;11.30;;;;;;;14.91;72.70;100348.94;5122809;28;20024;-65
2021/06/29 01:38:51;;;;;;;18.77;10.70;;;;;;;14.84;72.86;100338.66;5123954;28;20031;-66
2021/06/29 01:41:20;;;;;;;17.95;9.38;;;;;;;14.82;73.15;100337.00;5124267;28;20088;-66
2021/06/29 01:43:53;;;;;;;17.33;10.60;;;;;;;14.78;73.07;100343.16;5105962;28;20015;-67
2021/06/29 01:46:20;;;;;;;18.30;10.82;;;;;;;14.68;72.91;100332.94;5124226;28;20027;-67
2021/06/29 01:48:49;;;;;;;18.92;11.73;;;;;;;14.57;73.18;100335.00;5124308;28;20068;-67
2021/06/29 01:51:15;;;;;;;20.23;11.13;;;;;;;14.46;73.75;100340.50;5124038;28;20030;-67
2021/06/29 01:53:41;;;;;;;16.27;10.48;;;;;;;14.36;74.13;100329.44;5123814;28;20030;-66
2021/06/29 01:56:14;;;;;;;19.73;11.00;;;;;;;14.28;74.08;100332.22;5123802;28;20024;-67
2021/06/29 01:59:01;;;;;;;16.50;11.20;;;;;;;14.23;74.29;100340.19;5124044;28;20019;-67
2021/06/29 02:01:27;;;;;;;16.65;10.73;;;;;;;14.16;74.71;100349.06;5122490;28;20475;-66
2021/06/29 02:03:52;;;;;;;21.83;10.68;;;;;;;14.11;74.96;100335.25;5123982;28;20030;-67
2021/06/29 02:06:18;;;;;;;18.67;10.10;;;;;;;14.14;75.22;100343.03;5122400;28;20040;-66
2021/06/29 02:08:44;;;;;;;15.30;9.48;;;;;;;14.18;74.92;100347.28;5123694;28;20031;-65
2021/06/29 02:11:10;;;;;;;18.73;10.15;;;;;;;14.17;74.74;100344.72;5123733;28;20023;-66
2021/06/29 02:13:37;;;;;;;21.83;10.88;;;;;;;14.11;74.81;100349.19;5123632;28;20049;-66
2021/06/29 02:16:03;;;;;;;16.05;9.98;;;;;;;14.11;74.76;100354.41;5123737;28;20023;-66
2021/06/29 02:18:28;;;;;;;18.77;9.77;;;;;;;14.12;74.65;100352.66;5123691;28;20042;-66
2021/06/29 02:20:54;;;;;;;17.55;10.32;;;;;;;14.06;74.95;100352.78;5123754;28;20129;-66
2021/06/29 02:23:20;;;;;;;19.60;10.38;;;;;;;14.03;74.96;100350.25;5123538;28;20037;-66
2021/06/29 02:25:45;;;;;;;17.95;10.57;;;;;;;13.95;74.92;100348.69;5123670;28;20020;-66
2021/06/29 02:28:11;;;;;;;17.70;10.13;;;;;;;13.90;75.13;100334.03;5123927;28;20023;-66
2021/06/29 02:30:37;;;;;;;18.52;11.60;;;;;;;13.94;75.09;100338.28;5123812;28;20084;-67
2021/06/29 02:33:03;;;;;;;16.42;9.50;;;;;;;13.90;75.33;100328.81;5126106;28;20316;-66
2021/06/29 02:35:29;;;;;;;18.60;9.93;;;;;;;13.92;75.33;100329.63;5127657;28;20042;-66
2021/06/29 02:37:55;;;;;;;19.92;10.18;;;;;;;13.88;75.62;100324.47;5127511;28;20024;-66
2021/06/29 02:40:20;;;;;;;20.85;11.85;;;;;;;13.87;75.48;100332.34;5127398;28;20028;-66
2021/06/29 02:42:46;;;;;;;20.60;10.38;;;;;;;13.81;75.42;100324.66;5126049;28;20083;-66
2021/06/29 02:45:17;;;;;;;19.15;10.55;;;;;;;13.80;75.82;100321.19;5125907;28;20024;-66
2021/06/29 02:47:43;;;;;;;19.27;10.68;;;;;;;13.83;76.18;100321.16;5126279;28;20050;-66
2021/06/29 02:50:09;;;;;;;17.35;10.90;;;;;;;13.97;75.61;100314.72;5127197;28;20034;-67
2021/06/29 02:52:35;;;;;;;22.67;11.35;;;;;;;14.02;75.61;100328.53;5127167;28;20059;-67
2021/06/29 02:55:02;;;;;;;19.05;9.98;;;;;;;14.07;75.45;100337.13;5126931;28;20027;-67
2021/06/29 02:57:27;;;;;;;16.95;10.40;;;;;;;14.10;75.05;100334.44;5127253;28;20460;-67
2021/06/29 02:59:53;;;;;;;20.48;11.43;;;;;;;14.11;74.86;100338.75;5126970;28;20057;-67
2021/06/29 03:02:19;;;;;;;17.90;10.10;;;;;;;14.11;75.00;100335.25;5125700;28;20057;-67
2021/06/29 03:04:44;;;;;;;17.92;10.27;;;;;;;14.12;74.98;100327.41;5126785;28;20020;-67
2021/06/29 03:07:09;;;;;;;16.77;10.63;;;;;;;14.14;74.61;100322.13;5125790;28;20507;-67
2021/06/29 03:09:35;;;;;;;21.15;10.88;;;;;;;14.22;75.00;100311.50;5125357;28;20016;-67
2021/06/29 03:12:01;;;;;;;11.98;8.13;;;;;;;14.42;76.24;100321.47;5127112;28;20115;-67
2021/06/29 03:14:26;;;;;;;12.48;7.68;;;;;;;14.83;75.95;100316.03;5126889;28;20083;-67
2021/06/29 03:16:52;;;;;;;13.15;7.38;;;;;;;15.16;75.95;100319.50;5126643;28;20079;-67
2021/06/29 03:19:18;;;;;;;11.77;7.35;;;;;;;15.74;75.94;100332.59;5126846;28;20027;-67
2021/06/29 03:21:44;;;;;;;15.23;6.97;;;;;;;16.32;74.54;100330.78;5126605;28;20028;-67
2021/06/29 03:24:09;;;;;;;9.93;7.45;;;;;;;16.95;72.85;100329.47;5126664;28;20015;-67
2021/06/29 03:26:35;;;;;;;12.13;7.13;;;;;;;17.13;70.89;100327.09;5126565;28;20024;-67
2021/06/29 03:29:00;;;;;;;13.20;8.73;;;;;;;17.27;70.32;100328.38;5125615;28;20384;-66
2021/06/29 03:31:26;;;;;;;16.77;8.23;;;;;;;17.33;69.62;100336.84;5124207;28;20112;-67
2021/06/29 03:33:51;;;;;;;16.17;8.38;;;;;;;17.33;68.73;100328.13;5126205;28;20083;-67
2021/06/29 03:36:17;;;;;;;14.73;8.32;;;;;;;17.30;68.26;100312.50;5126350;28;20027;-67
2021/06/29 03:38:42;;;;;;;16.63;8.38;;;;;;;17.37;67.61;100308.72;5126304;28;20075;-67
2021/06/29 03:41:07;;;;;;;13.10;8.20;;;;;;;17.38;67.20;100304.34;5125160;28;20015;-67
2021/06/29 03:43:36;;;;;;;15.35;7.05;;;;;;;17.43;67.56;100307.63;5125876;28;20022;-67
2021/06/29 03:46:02;;;;;;;13.52;6.63;;;;;;;17.90;67.28;100296.16;5125919;28;20020;-67
2021/06/29 03:48:28;;;;;;;12.63;7.05;;;;;;;18.35;65.66;100301.34;5126381;28;20019;-68
2021/06/29 03:50:53;;;;;;;10.90;6.00;;;;;;;18.65;65.06;100302.69;5126267;27;20091;-67
2021/06/29 03:53:18;;;;;;;10.55;6.15;;;;;;;19.28;63.91;100306.91;5125941;28;20023;-67
2021/06/29 03:55:44;;;;;;;10.80;6.63;;;;;;;19.62;62.19;100306.22;5125971;28;20023;-67
2021/06/29 03:58:09;;;;;;;13.25;6.55;;;;;;;19.42;61.21;100315.94;5126282;28;20047;-68
2021/06/29 04:00:35;;;;;;;12.27;7.45;;;;;;;19.23;61.36;100319.44;5124516;28;20027;-67
2021/06/29 04:03:00;;;;;;;11.52;7.15;;;;;;;19.26;61.03;100318.44;5125981;28;20047;-68
2021/06/29 04:05:25;;;;;;;17.92;8.07;;;;;;;19.30;60.42;100320.84;5125922;28;20023;-66
2021/06/29 04:07:51;;;;;;;12.27;6.38;;;;;;;19.36;60.90;100324.13;5125848;28;20578;-68
2021/06/29 04:10:16;;;;;;;11.13;6.47;;;;;;;19.75;60.43;100314.38;5124311;28;20020;-68
2021/06/29 04:12:42;;;;;;;9.35;5.90;;;;;;;20.31;59.28;100317.81;5125669;28;20038;-67
2021/06/29 04:15:08;;;;;;;11.23;5.97;;;;;;;20.55;57.43;100308.69;5124318;28;20015;-67
2021/06/29 04:17:34;;;;;;;10.85;6.60;;;;;;;20.70;56.96;100303.56;5125736;28;20023;-67
2021/06/29 04:19:59;;;;;;;11.65;7.40;;;;;;;20.73;56.22;100296.34;5125340;28;20288;-67
2021/06/29 04:22:25;;;;;;;10.27;6.70;;;;;;;20.50;56.03;100301.03;5125757;28;20042;-67
2021/06/29 04:24:50;;;;;;;7.88;5.95;;;;;;;20.45;56.98;100287.22;5125162;28;20024;-66
2021/06/29 04:27:15;;;;;;;7.38;5.28;;;;;;;21.07;56.28;100292.84;5125300;28;20031;-67
2021/06/29 04:29:41;;;;;;;9.38;6.38;;;;;;;21.76;54.73;100301.31;5125306;28;20360;-67
2021/06/29 04:32:07;;;;;;;7.65;5.50;;;;;;;22.20;53.05;100298.84;5125183;28;20051;-68
2021/06/29 04:34:33;;;;;;;9.43;5.40;;;;;;;22.60;51.71;100300.94;5125296;28;20068;-68
2021/06/29 04:36:58;;;;;;;9.43;5.95;;;;;;;22.77;51.21;100313.13;5125403;28;20059;-67
2021/06/29 04:39:23;;;;;;;8.50;5.70;;;;;;;22.70;50.72;100305.66;5125001;27;20124;-67
2021/06/29 04:41:49;;;;;;;10.75;6.70;;;;;;;22.51;51.17;100298.78;5124033;28;20522;-67
2021/06/29 04:44:14;;;;;;;7.60;5.05;;;;;;;22.65;49.75;100298.00;5123737;28;20455;-68
2021/06/29 04:46:40;;;;;;;11.13;5.40;;;;;;;22.51;49.57;100297.00;5125208;28;20045;-67
2021/06/29 04:49:05;;;;;;;9.48;4.97;;;;;;;21.97;49.98;100292.25;5125131;28;20023;-67
2021/06/29 04:51:30;;;;;;;8.70;5.47;;;;;;;21.53;50.87;100290.28;5124896;28;20023;-68
2021/06/29 04:53:56;;;;;;;17.65;6.00;;;;;;;21.04;51.75;100283.28;5124104;28;20023;-68
2021/06/29 04:56:21;;;;;;;9.85;5.43;;;;;;;20.77;52.75;100287.31;5124070;28;20024;-68
2021/06/29 04:58:52;;;;;;;9.68;5.20;;;;;;;21.14;52.92;100284.50;5124977;28;20023;-68
2021/06/29 05:01:18;;;;;;;6.70;3.92;;;;;;;21.82;51.67;100284.28;5123517;28;20023;-67
2021/06/29 05:03:43;;;;;;;9.77;4.10;;;;;;;22.58;50.55;100280.75;5124648;28;20027;-66
2021/06/29 05:06:09;;;;;;;9.38;4.68;;;;;;;22.85;47.22;100278.22;5124405;28;20035;-67
2021/06/29 05:08:34;;;;;;;9.10;4.40;;;;;;;22.40;47.51;100280.94;5124552;28;20367;-68
2021/06/29 05:11:00;;;;;;;9.27;5.32;;;;;;;21.77;48.48;100287.19;5124300;28;20031;-66
2021/06/29 05:13:25;;;;;;;10.70;4.65;;;;;;;21.22;49.88;100286.72;5124366;28;20053;-66
2021/06/29 05:15:51;;;;;;;9.80;5.78;;;;;;;20.92;50.89;100280.41;5122951;28;20124;-67
2021/06/29 05:18:16;;;;;;;8.15;4.38;;;;;;;21.00;51.07;100280.00;5124273;28;20050;-68
2021/06/29 05:20:41;;;;;;;10.32;3.80;;;;;;;21.64;50.86;100280.91;5124135;28;20027;-67
2021/06/29 05:23:07;;;;;;;8.80;4.63;;;;;;;22.59;49.77;100290.41;5124219;28;20104;-67
2021/06/29 05:25:32;;;;;;;8.23;4.43;;;;;;;23.46;47.40;100290.34;5124151;28;20027;-66
2021/06/29 05:27:58;;;;;;;9.18;4.25;;;;;;;23.58;45.61;100290.50;5124220;28;20418;-66
2021/06/29 05:30:23;;;;;;;6.75;3.38;;;;;;;23.83;45.14;100297.69;5124051;28;20043;-67
2021/06/29 05:32:48;;;;;;;6.88;3.92;;;;;;;24.36;44.23;100293.34;5123953;28;20562;-66
2021/06/29 05:35:14;;;;;;;8.05;3.92;;;;;;;24.90;42.40;100288.75;5124281;28;20026;-66
2021/06/29 05:37:39;;;;;;;6.25;3.47;;;;;;;25.23;40.98;100289.06;5124232;28;20023;-63
2021/06/29 05:40:05;;;;;;;6.38;3.72;;;;;;;25.57;40.78;100283.94;5124050;28;20031;-66
2021/06/29 05:42:31;;;;;;;6.55;3.30;;;;;;;26.03;40.08;100283.28;5124529;28;20032;-66
2021/06/29 05:44:56;;;;;;;7.15;3.78;;;;;;;26.90;38.65;100281.09;5124230;28;20084;-65
2021/06/29 05:47:22;;;;;;;7.93;3.60;;;;;;;27.22;36.46;100278.50;5122829;28;20068;-63
2021/06/29 05:49:48;;;;;;;8.95;3.78;;;;;;;27.01;36.83;100269.59;5124077;28;20045;-63
2021/06/29 05:52:13;;;;;;;9.15;3.88;;;;;;;27.12;36.73;100277.56;5124180;28;20026;-61
2021/06/29 05:54:41;;;;;;;10.80;3.90;;;;;;;27.23;36.65;100284.69;5123818;28;20122;-63
2021/06/29 05:57:06;;;;;;;5.55;3.40;;;;;;;27.52;35.32;100283.25;5122716;28;20054;-61
2021/06/29 05:59:31;;;;;;;8.05;3.45;;;;;;;27.59;35.13;100281.78;5123956;28;20020;-63
2021/06/29 06:01:58;;;;;;;7.10;3.67;;;;;;;27.57;34.82;100276.56;5124153;28;20433;-62
2021/06/29 06:04:23;;;;;;;6.82;3.35;;;;;;;27.70;34.97;100280.94;5123934;28;20052;-65
2021/06/29 06:06:49;;;;;;;10.82;4.05;;;;;;;27.59;34.06;100274.63;5126452;28;20027;-63
2021/06/29 06:09:14;;;;;;;8.00;3.78;;;;;;;27.45;34.78;100289.09;5128043;27;20034;-62
2021/06/29 06:11:39;;;;;;;8.70;4.00;;;;;;;27.47;34.56;100281.84;5127613;28;20484;-63
2021/06/29 06:14:05;;;;;;;7.45;3.47;;;;;;;27.37;34.86;100278.22;5128227;28;20365;-62
2021/06/29 06:16:33;;;;;;;11.50;3.67;;;;;;;27.58;35.27;100264.09;5128003;28;20024;-62
2021/06/29 06:18:58;;;;;;;8.38;3.90;;;;;;;27.57;34.32;100257.06;5127946;28;20023;-61
2021/06/29 06:21:24;;;;;;;13.07;3.63;;;;;;;27.74;34.16;100260.16;5127816;28;20026;-61
2021/06/29 06:23:52;;;;;;;8.13;3.97;;;;;;;27.49;33.55;100252.38;5127926;28;20019;-62
2021/06/29 06:26:17;;;;;;;8.27;3.70;;;;;;;27.39;33.56;100262.97;5127372;28;20066;-62
2021/06/29 06:28:42;;;;;;;8.70;3.90;;;;;;;27.45;34.12;100253.59;5127847;28;20024;-61
2021/06/29 06:31:08;;;;;;;8.93;3.50;;;;;;;27.50;33.42;100243.41;5127593;28;20027;-61
2021/06/29 06:33:33;;;;;;;7.35;3.47;;;;;;;27.61;33.51;100255.84;5127540;28;20039;-62
2021/06/29 06:35:58;;;;;;;5.55;2.88;;;;;;;27.57;32.42;100252.56;5127541;28;20023;-61
2021/06/29 06:38:24;;;;;;;11.23;3.30;;;;;;;27.42;32.40;100256.53;5127274;28;20584;-62
2021/06/29 06:40:49;;;;;;;6.43;3.40;;;;;;;27.29;33.27;100256.69;5127529;28;20019;-61
2021/06/29 06:43:14;;;;;;;7.03;3.40;;;;;;;27.26;33.35;100262.25;5127680;27;20020;-62
2021/06/29 06:45:40;;;;;;;5.50;2.92;;;;;;;27.47;32.80;100260.50;5125883;28;20042;-62
2021/06/29 06:48:06;;;;;;;5.53;3.67;;;;;;;27.36;33.65;100268.53;5127377;28;20377;-62
2021/06/29 06:50:31;;;;;;;6.18;3.42;;;;;;;27.29;33.81;100267.34;5127427;28;20020;-62
2021/06/29 06:52:57;;;;;;;7.28;3.30;;;;;;;27.30;33.47;100266.38;5127428;28;20028;-62
2021/06/29 06:55:25;;;;;;;4.85;3.40;;;;;;;27.40;33.10;100277.97;5127189;28;20043;-62
2021/06/29 06:57:53;;;;;;;7.15;3.45;;;;;;;27.39;33.56;100273.63;5127251;28;20016;-62
2021/06/29 07:00:20;;;;;;;6.75;3.33;;;;;;;27.45;32.53;100273.13;5126966;28;20019;-62
2021/06/29 07:02:45;;;;;;;7.97;3.47;;;;;;;27.50;32.44;100263.88;5127070;28;20045;-63
2021/06/29 07:05:11;;;;;;;6.03;3.55;;;;;;;27.67;32.87;100271.34;5127006;28;20020;-63
2021/06/29 07:07:37;;;;;;;6.80;3.60;;;;;;;28.01;31.79;100272.13;5127173;28;20020;-62
2021/06/29 07:10:04;;;;;;;6.88;3.60;;;;;;;28.12;32.05;100273.88;5126828;28;20115;-62
2021/06/29 07:12:29;;;;;;;7.97;3.13;;;;;;;28.17;31.37;100283.22;5127087;28;20110;-62
2021/06/29 07:14:55;;;;;;;5.80;3.28;;;;;;;28.06;31.83;100285.94;5126848;28;20065;-62
2021/06/29 07:17:21;;;;;;;5.97;3.83;;;;;;;27.93;31.93;100276.31;5124425;28;20073;-62
2021/06/29 07:19:46;;;;;;;7.05;3.47;;;;;;;27.84;31.39;100280.59;5125395;28;20024;-62
2021/06/29 07:22:11;;;;;;;6.30;3.47;;;;;;;27.76;31.80;100288.41;5126749;27;20023;-61
2021/06/29 07:24:37;;;;;;;9.30;3.60;;;;;;;27.51;31.85;100281.59;5126473;28;20183;-62
2021/06/29 07:27:04;;;;;;;8.18;4.15;;;;;;;27.18;31.78;100278.88;5126367;28;20371;-62
2021/06/29 07:29:30;;;;;;;6.82;3.38;;;;;;;27.03;32.44;100278.31;5125708;28;20471;-63
2021/06/29 07:31:55;;;;;;;6.90;3.28;;;;;;;27.12;31.94;100285.56;5125711;28;20134;-62
2021/06/29 07:34:21;;;;;;;8.15;3.20;;;;;;;27.07;31.56;100277.09;5126488;28;20066;-63
2021/06/29 07:36:46;;;;;;;5.03;3.13;;;;;;;27.24;31.22;100286.38;5126493;28;20023;-61
2021/06/29 07:39:12;;;;;;;7.00;3.03;;;;;;;27.22;30.04;100294.50;5126431;28;20011;-62
2021/06/29 07:41:37;;;;;;;5.45;3.20;;;;;;;27.06;30.52;100280.72;5126409;28;20031;-67
2021/06/29 07:44:03;;;;;;;8.57;3.08;;;;;;;27.00;30.17;100283.88;5124954;28;20019;-67
2021/06/29 07:46:28;;;;;;;6.70;3.35;;;;;;;26.79;30.78;100289.94;5125919;28;20035;-63
2021/06/29 07:48:54;;;;;;;7.65;3.60;;;;;;;26.62;31.34;100300.09;5126434;28;20031;-67
2021/06/29 07:51:19;;;;;;;6.10;3.55;;;;;;;26.45;32.21;100306.75;5126002;27;20509;-63
2021/06/29 07:53:46;;;;;;;6.97;3.13;;;;;;;26.53;31.70;100296.34;5125976;28;20027;-63
2021/06/29 07:56:14;;;;;;;5.55;4.15;;;;;;;26.63;31.71;100299.13;5126094;28;20027;-63
2021/06/29 07:58:44;;;;;;;7.60;3.67;;;;;;;27.04;32.01;100303.97;5126120;28;20024;-64
2021/06/29 08:01:14;;;;;;;8.52;4.03;;;;;;;27.28;31.35;100289.63;5126013;28;20053;-61
2021/06/29 08:03:40;;;;;;;4.80;3.30;;;;;;;27.22;31.06;100297.16;5126024;28;20012;-61
2021/06/29 08:06:06;;;;;;;5.25;3.67;;;;;;;27.14;31.39;100299.59;5125732;28;20026;-61
2021/06/29 08:08:31;;;;;;;7.00;4.18;;;;;;;27.28;31.69;100298.50;5125819;28;20072;-61
2021/06/29 08:11:01;;;;;;;6.68;3.58;;;;;;;27.33;31.95;100303.44;5125905;28;20396;-61
2021/06/29 08:13:27;;;;;;;8.05;3.90;;;;;;;27.22;31.35;100305.16;5125675;28;20027;-62
2021/06/29 08:15:53;;;;;;;7.72;3.85;;;;;;;26.93;31.31;100311.00;5125745;28;20027;-62
2021/06/29 08:18:18;;;;;;;10.05;4.47;;;;;;;26.87;32.28;100303.47;5125728;28;20027;-62
2021/06/29 08:20:44;;;;;;;9.63;4.78;;;;;;;26.84;32.66;100298.38;5125558;28;20394;-60
2021/06/29 08:23:10;;;;;;;7.22;4.65;;;;;;;27.04;32.54;100285.31;5124384;28;20015;-61
2021/06/29 08:25:36;;;;;;;10.07;5.22;;;;;;;27.00;32.60;100297.19;5125095;28;20035;-62
2021/06/29 08:28:02;;;;;;;12.57;4.65;;;;;;;26.95;32.25;100300.22;5125580;28;20038;-61
2021/06/29 08:30:28;;;;;;;9.32;4.95;;;;;;;27.03;32.54;100303.13;5125163;28;20023;-62
2021/06/29 08:32:54;;;;;;;12.50;4.85;;;;;;;27.11;32.94;100297.16;5125240;28;20046;-62
2021/06/29 08:35:19;;;;;;;9.55;4.70;;;;;;;27.28;31.94;100292.31;5125238;28;20054;-62
2021/06/29 08:37:45;;;;;;;9.18;4.47;;;;;;;27.35;30.90;100294.34;5125435;28;20463;-62
2021/06/29 08:40:13;;;;;;;7.45;4.95;;;;;;;27.42;31.30;100291.16;5124948;28;20031;-62
2021/06/29 08:42:39;;;;;;;10.45;6.13;;;;;;;27.65;31.34;100286.63;5125204;28;20019;-62
2021/06/29 08:45:08;;;;;;;9.57;5.57;;;;;;;27.98;31.72;100286.59;5125022;28;20463;-62
2021/06/29 08:47:34;;;;;;;9.00;5.32;;;;;;;28.20;29.25;100282.94;5100629;22;20056;-71
2021/06/29 08:50:00;;;;;;;12.27;6.03;;;;;;;28.23;29.26;100286.34;5084386;28;20028;-69
2021/06/29 08:52:26;;;;;;;10.82;4.75;;;;;;;28.42;28.56;100277.63;5084138;28;20518;-70
2021/06/29 08:54:52;;;;;;;9.45;4.93;;;;;;;28.23;28.20;100275.66;5082387;28;20088;-70
2021/06/29 08:57:18;;;;;;;9.25;5.55;;;;;;;27.71;29.90;100277.28;5082483;28;20028;-70
2021/06/29 08:59:43;;;;;;;11.93;5.53;;;;;;;27.39;31.34;100278.09;5083980;28;20020;-70
2021/06/29 09:02:08;;;;;;;8.35;4.97;;;;;;;27.15;30.74;100261.34;5082723;28;20020;-70
2021/06/29 09:04:51;;;;;;;9.93;5.25;;;;;;;26.77;31.07;100263.44;5082695;28;20020;-70
2021/06/29 09:07:22;;;;;;;8.82;5.60;;;;;;;26.34;31.73;100272.97;5082397;28;20024;-70
2021/06/29 09:09:49;;;;;;;13.83;6.33;;;;;;;26.05;33.07;100273.38;5084019;28;20024;-72
2021/06/29 09:12:47;;;;;;;10.27;6.32;;;;;;;26.11;33.60;100275.56;5083870;28;20269;-71
2021/06/29 09:15:34;;;;;;;10.98;6.43;;;;;;;26.15;33.60;100269.03;5082508;28;20021;-71
2021/06/29 09:18:06;;;;;;;10.70;6.47;;;;;;;25.97;34.21;100266.84;5083712;28;20050;-70
2021/06/29 09:20:58;;;;;;;15.45;6.63;;;;;;;25.67;34.97;100273.50;5083707;28;20025;-71
2021/06/29 09:23:37;;;;;;;9.88;7.22;;;;;;;25.06;36.38;100277.88;5073983;28;20056;-71
2021/06/29 09:26:13;;;;;;;15.40;7.72;;;;;;;24.57;37.23;100275.06;5083778;28;20020;-72
2021/06/29 09:28:40;;;;;;;10.60;6.35;;;;;;;24.31;38.19;100272.44;5083721;28;20031;-68
2021/06/29 09:31:07;;;;;;;11.43;6.25;;;;;;;24.27;38.27;100268.28;5083577;28;20489;-70
2021/06/29 09:33:40;;;;;;;11.40;5.82;;;;;;;24.36;38.48;100258.84;5083840;28;20027;-70
2021/06/29 09:36:09;;;;;;;8.93;5.80;;;;;;;24.65;38.16;100266.53;5083739;28;20032;-70
2021/06/29 09:38:39;;;;;;;9.57;5.90;;;;;;;24.82;37.95;100259.22;5083476;28;20025;-70
2021/06/29 09:41:06;;;;;;;10.18;6.50;;;;;;;25.07;37.96;100262.78;5083291;28;20048;-71
2021/06/29 09:43:38;;;;;;;11.15;5.85;;;;;;;25.29;37.00;100256.75;5083497;28;20025;-70
2021/06/29 09:46:07;;;;;;;8.45;6.35;;;;;;;25.22;37.03;100248.41;5083040;28;20439;-70
2021/06/29 09:48:42;;;;;;;12.55;7.28;;;;;;;24.98;37.00;100241.25;5083617;28;20025;-68
2021/06/29 09:51:19;;;;;;;11.23;6.35;;;;;;;24.86;36.76;100240.28;5082133;28;20051;-70
2021/06/29 09:53:53;;;;;;;11.23;5.35;;;;;;;25.00;35.85;100241.16;5083385;28;20025;-70
2021/06/29 09:56:24;;;;;;;7.93;5.68;;;;;;;25.47;36.03;100238.59;5083238;28;20028;-71
2021/06/29 09:58:52;;;;;;;7.93;5.38;;;;;;;26.13;34.31;100241.72;5083619;28;20032;-69
2021/06/29 10:01:20;;;;;;;8.07;4.63;;;;;;;26.57;32.31;100239.22;5083434;28;20033;-71
2021/06/29 10:03:51;;;;;;;10.15;4.97;;;;;;;26.71;32.02;100226.66;5081796;28;20012;-72
2021/06/29 10:06:23;;;;;;;9.63;4.63;;;;;;;26.82;30.77;100228.44;5081840;28;20032;-70
2021/06/29 10:08:52;;;;;;;;;;;;;;;26.58;30.08;100232.09;5083633;28;20029;-72
2021/06/29 10:11:22;;;;;;;10.88;5.20;;;;;;;26.50;31.89;100226.53;5081709;28;20076;-71
2021/06/29 10:14:03;;;;;;;11.05;4.90;;;;;;;26.42;32.08;100222.66;5082930;28;20095;-72
2021/06/29 10:16:44;;;;;;;7.57;4.80;;;;;;;26.29;31.36;100228.09;5083112;28;20480;-70
2021/06/29 10:19:31;;;;;;;6.55;5.00;;;;;;;26.15;32.37;100237.09;5083475;28;20020;-71
2021/06/29 10:22:03;;;;;;;9.98;4.43;;;;;;;26.23;32.83;100228.56;5081869;28;20100;-72
2021/06/29 10:24:32;;;;;;;6.38;4.80;;;;;;;26.47;33.58;100231.13;5081742;28;20312;-72
2021/06/29 10:26:59;;;;;;;8.20;4.95;;;;;;;26.83;32.36;100225.66;5081567;28;20107;-71
2021/06/29 10:29:28;;;;;;;8.20;4.57;;;;;;;27.28;30.72;100239.00;5081141;28;20078;-72
2021/06/29 10:31:58;;;;;;;8.18;4.72;;;;;;;27.26;31.13;100233.81;5081504;28;20063;-71
2021/06/29 10:34:25;;;;;;;9.88;4.30;;;;;;;27.24;31.32;100205.59;5081685;28;20021;-71
2021/06/29 10:36:53;;;;;;;6.85;4.68;;;;;;;27.39;31.31;100228.31;5081696;28;20508;-71
2021/06/29 10:39:22;;;;;;;7.50;4.07;;;;;;;27.55;30.49;100233.22;5081421;28;20031;-72
2021/06/29 10:41:53;;;;;;;6.15;4.60;;;;;;;27.45;29.51;100241.13;5083248;28;20021;-71
2021/06/29 10:44:21;;;;;;;9.83;4.87;;;;;;;27.53;29.54;100232.47;5082962;28;20020;-72
2021/06/29 10:46:52;;;;;;;10.30;4.70;;;;;;;27.63;29.57;100227.22;5082684;28;20104;-71
2021/06/29 10:49:36;;;;;;;8.82;4.32;;;;;;;27.69;29.23;100220.56;5082990;28;20024;-71
2021/06/29 10:52:24;;;;;;;10.75;4.82;;;;;;;27.95;29.38;100229.03;5083009;28;20058;-72
2021/06/29 10:55:12;;;;;;;7.43;4.80;;;;;;;27.90;29.11;100217.91;5086321;28;20017;-71
2021/06/29 10:57:46;;;;;;;9.25;3.53;;;;;;;27.81;24.95;100224.84;5070822;28;20059;-71
2021/06/29 11:00:20;;;;;;;6.53;3.75;;;;;;;27.29;25.54;100219.38;5085153;28;20048;-71
2021/06/29 11:03:10;;;;;;;7.57;4.30;;;;;;;26.60;27.82;100220.34;5086337;28;20020;-72
2021/06/29 11:05:41;;;;;;;9.35;4.72;;;;;;;25.85;28.22;100233.19;5086339;28;20031;-72
2021/06/29 11:08:09;;;;;;;13.88;5.28;;;;;;;25.27;31.23;100224.16;5085138;28;20432;-72
2021/06/29 11:10:37;;;;;;;8.95;5.25;;;;;;;24.91;32.06;100224.06;5086109;28;20024;-72
2021/06/29 11:13:04;;;;;;;7.47;5.03;;;;;;;24.71;32.32;100230.78;5086060;28;20059;-72
2021/06/29 11:15:52;;;;;;;8.50;4.60;;;;;;;24.55;31.49;100223.06;5086009;28;20253;-73
2021/06/29 11:18:36;;;;;;;7.97;4.20;;;;;;;24.21;29.89;100232.41;5084941;28;20162;-73
2021/06/29 11:21:04;;;;;;;10.45;4.55;;;;;;;23.92;31.85;100237.88;5084847;28;20040;-72